sensor_id;sensor_type;location;lat;lon;timestamp;temperature;humidity
16503;DHT22;53067;48.114;11.694;2023-04-02T00:02:54;9.60;72.70
16503;DHT22;53067;48.114;11.694;2023-04-02T00:05:46;9.60;72.60
16503;DHT22;53067;48.114;11.694;2023-04-02T00:08:05;9.60;72.80
16503;DHT22;53067;48.114;11.694;2023-04-02T00:10:38;9.60;72.70
16503;DHT22;53067;48.114;11.694;2023-04-02T00:15:46;9.50;73.00
16503;DHT22;53067;48.114;11.694;2023-04-02T00:18:20;9.50;73.20
16503;DHT22;53067;48.114;11.694;2023-04-02T00:20:51;9.50;73.10
16503;DHT22;53067;48.114;11.694;2023-04-02T00:23:15;9.40;73.20
16503;DHT22;53067;48.114;11.694;2023-04-02T00:25:44;9.40;73.40
16503;DHT22;53067;48.114;11.694;2023-04-02T00:28:14;9.40;73.30
16503;DHT22;53067;48.114;11.694;2023-04-02T00:30:50;9.50;73.20
16503;DHT22;53067;48.114;11.694;2023-04-02T00:33:38;9.50;73.10
16503;DHT22;53067;48.114;11.694;2023-04-02T00:36:07;9.50;73.80
16503;DHT22;53067;48.114;11.694;2023-04-02T00:38:35;9.50;73.30
16503;DHT22;53067;48.114;11.694;2023-04-02T00:41:04;9.50;73.20
16503;DHT22;53067;48.114;11.694;2023-04-02T00:43:36;9.40;73.10
16503;DHT22;53067;48.114;11.694;2023-04-02T00:46:09;9.40;73.30
16503;DHT22;53067;48.114;11.694;2023-04-02T00:49:07;9.40;73.30
16503;DHT22;53067;48.114;11.694;2023-04-02T00:51:31;9.30;73.30
16503;DHT22;53067;48.114;11.694;2023-04-02T00:54:02;9.40;73.40
16503;DHT22;53067;48.114;11.694;2023-04-02T00:56:50;9.40;73.30
16503;DHT22;53067;48.114;11.694;2023-04-02T00:59:30;9.30;73.40
16503;DHT22;53067;48.114;11.694;2023-04-02T01:05:01;9.30;73.40
16503;DHT22;53067;48.114;11.694;2023-04-02T01:08:17;9.20;73.30
16503;DHT22;53067;48.114;11.694;2023-04-02T01:10:32;9.20;73.50
16503;DHT22;53067;48.114;11.694;2023-04-02T01:16:05;9.20;73.70
16503;DHT22;53067;48.114;11.694;2023-04-02T01:18:33;9.20;73.70
16503;DHT22;53067;48.114;11.694;2023-04-02T01:21:06;9.20;73.60
16503;DHT22;53067;48.114;11.694;2023-04-02T01:23:52;9.30;73.60
16503;DHT22;53067;48.114;11.694;2023-04-02T01:26:41;9.30;73.40
16503;DHT22;53067;48.114;11.694;2023-04-02T01:29:15;9.30;73.50
16503;DHT22;53067;48.114;11.694;2023-04-02T01:31:41;9.20;73.70
16503;DHT22;53067;48.114;11.694;2023-04-02T01:34:13;9.30;74.40
16503;DHT22;53067;48.114;11.694;2023-04-02T01:37:09;9.30;73.60
16503;DHT22;53067;48.114;11.694;2023-04-02T01:39:41;9.30;73.60
16503;DHT22;53067;48.114;11.694;2023-04-02T01:44:58;9.30;73.80
16503;DHT22;53067;48.114;11.694;2023-04-02T01:47:22;9.20;73.70
16503;DHT22;53067;48.114;11.694;2023-04-02T01:49:53;9.20;73.60
16503;DHT22;53067;48.114;11.694;2023-04-02T01:52:32;9.20;73.90
16503;DHT22;53067;48.114;11.694;2023-04-02T01:54:55;9.30;73.80
16503;DHT22;53067;48.114;11.694;2023-04-02T01:57:23;9.30;74.00
16503;DHT22;53067;48.114;11.694;2023-04-02T01:59:51;9.30;73.90
16503;DHT22;53067;48.114;11.694;2023-04-02T02:02:19;9.30;73.80
16503;DHT22;53067;48.114;11.694;2023-04-02T02:04:48;9.30;73.90
16503;DHT22;53067;48.114;11.694;2023-04-02T02:07:18;9.30;73.90
16503;DHT22;53067;48.114;11.694;2023-04-02T02:09:47;9.30;74.30
16503;DHT22;53067;48.114;11.694;2023-04-02T02:12:19;9.30;74.20
16503;DHT22;53067;48.114;11.694;2023-04-02T02:14:49;9.30;73.90
16503;DHT22;53067;48.114;11.694;2023-04-02T02:17:22;9.30;74.00
16503;DHT22;53067;48.114;11.694;2023-04-02T02:20:09;9.30;73.90
16503;DHT22;53067;48.114;11.694;2023-04-02T02:22:42;9.30;73.60
16503;DHT22;53067;48.114;11.694;2023-04-02T02:25:17;9.30;74.70
16503;DHT22;53067;48.114;11.694;2023-04-02T02:27:53;9.30;73.90
16503;DHT22;53067;48.114;11.694;2023-04-02T02:38:37;9.20;74.20
16503;DHT22;53067;48.114;11.694;2023-04-02T02:41:11;9.20;74.20
16503;DHT22;53067;48.114;11.694;2023-04-02T02:43:37;9.20;74.40
16503;DHT22;53067;48.114;11.694;2023-04-02T02:46:07;9.30;74.10
16503;DHT22;53067;48.114;11.694;2023-04-02T02:48:38;9.30;73.90
16503;DHT22;53067;48.114;11.694;2023-04-02T02:51:11;9.30;73.80
16503;DHT22;53067;48.114;11.694;2023-04-02T02:53:47;9.20;73.80
16503;DHT22;53067;48.114;11.694;2023-04-02T02:56:14;9.20;74.00
16503;DHT22;53067;48.114;11.694;2023-04-02T02:58:42;9.10;73.90
16503;DHT22;53067;48.114;11.694;2023-04-02T03:01:10;9.10;74.20
16503;DHT22;53067;48.114;11.694;2023-04-02T03:03:39;9.10;73.90
16503;DHT22;53067;48.114;11.694;2023-04-02T03:06:08;9.10;74.10
16503;DHT22;53067;48.114;11.694;2023-04-02T03:11:40;9.10;73.70
16503;DHT22;53067;48.114;11.694;2023-04-02T03:14:29;9.10;74.00
16503;DHT22;53067;48.114;11.694;2023-04-02T03:17:07;9.10;74.10
16503;DHT22;53067;48.114;11.694;2023-04-02T03:19:37;9.10;74.20
16503;DHT22;53067;48.114;11.694;2023-04-02T03:22:28;9.10;74.20
16503;DHT22;53067;48.114;11.694;2023-04-02T03:25:38;9.20;74.00
16503;DHT22;53067;48.114;11.694;2023-04-02T03:28:10;9.20;73.90
16503;DHT22;53067;48.114;11.694;2023-04-02T03:30:46;9.20;74.00
16503;DHT22;53067;48.114;11.694;2023-04-02T03:33:16;9.20;73.90
16503;DHT22;53067;48.114;11.694;2023-04-02T03:35:56;9.20;74.00
16503;DHT22;53067;48.114;11.694;2023-04-02T03:38:29;9.20;73.90
16503;DHT22;53067;48.114;11.694;2023-04-02T03:41:02;9.20;74.00
16503;DHT22;53067;48.114;11.694;2023-04-02T03:43:45;9.20;73.90
16503;DHT22;53067;48.114;11.694;2023-04-02T03:46:38;9.20;73.80
16503;DHT22;53067;48.114;11.694;2023-04-02T03:49:05;9.20;73.90
16503;DHT22;53067;48.114;11.694;2023-04-02T03:54:15;9.20;73.90
16503;DHT22;53067;48.114;11.694;2023-04-02T03:56:44;9.20;73.70
16503;DHT22;53067;48.114;11.694;2023-04-02T04:02:13;9.30;73.60
16503;DHT22;53067;48.114;11.694;2023-04-02T04:04:42;9.30;73.60
16503;DHT22;53067;48.114;11.694;2023-04-02T04:07:18;9.30;73.20
16503;DHT22;53067;48.114;11.694;2023-04-02T04:09:42;9.20;73.30
16503;DHT22;53067;48.114;11.694;2023-04-02T04:12:35;9.20;73.50
16503;DHT22;53067;48.114;11.694;2023-04-02T04:18:09;9.30;73.70
16503;DHT22;53067;48.114;11.694;2023-04-02T04:20:57;9.30;73.40
16503;DHT22;53067;48.114;11.694;2023-04-02T04:23:35;9.20;73.30
16503;DHT22;53067;48.114;11.694;2023-04-02T04:26:06;9.20;73.60
16503;DHT22;53067;48.114;11.694;2023-04-02T04:31:40;9.20;73.70
16503;DHT22;53067;48.114;11.694;2023-04-02T04:34:19;9.10;73.70
16503;DHT22;53067;48.114;11.694;2023-04-02T04:36:50;9.00;73.80
16503;DHT22;53067;48.114;11.694;2023-04-02T04:39:18;9.10;73.80
16503;DHT22;53067;48.114;11.694;2023-04-02T04:41:48;9.00;73.90
16503;DHT22;53067;48.114;11.694;2023-04-02T04:44:22;9.00;73.90
16503;DHT22;53067;48.114;11.694;2023-04-02T04:47:14;9.00;74.00
16503;DHT22;53067;48.114;11.694;2023-04-02T04:49:46;9.00;74.10
16503;DHT22;53067;48.114;11.694;2023-04-02T04:52:28;9.10;74.10
16503;DHT22;53067;48.114;11.694;2023-04-02T04:54:51;9.00;74.00
16503;DHT22;53067;48.114;11.694;2023-04-02T05:00:15;9.00;74.20
16503;DHT22;53067;48.114;11.694;2023-04-02T05:02:47;9.00;73.90
16503;DHT22;53067;48.114;11.694;2023-04-02T05:05:21;9.00;73.90
16503;DHT22;53067;48.114;11.694;2023-04-02T05:07:50;9.10;73.90
16503;DHT22;53067;48.114;11.694;2023-04-02T05:13:10;9.00;74.10
16503;DHT22;53067;48.114;11.694;2023-04-02T05:15:49;9.00;74.30
16503;DHT22;53067;48.114;11.694;2023-04-02T05:18:27;9.00;74.20
16503;DHT22;53067;48.114;11.694;2023-04-02T05:23:52;9.00;74.30
16503;DHT22;53067;48.114;11.694;2023-04-02T05:26:37;9.00;74.40
16503;DHT22;53067;48.114;11.694;2023-04-02T05:32:03;9.00;74.30
16503;DHT22;53067;48.114;11.694;2023-04-02T05:34:33;9.10;74.20
16503;DHT22;53067;48.114;11.694;2023-04-02T05:37:03;9.00;74.00
16503;DHT22;53067;48.114;11.694;2023-04-02T05:39:31;9.00;74.10
16503;DHT22;53067;48.114;11.694;2023-04-02T05:42:05;9.00;74.20
16503;DHT22;53067;48.114;11.694;2023-04-02T05:44:42;9.00;74.30
16503;DHT22;53067;48.114;11.694;2023-04-02T05:47:13;8.90;74.30
16503;DHT22;53067;48.114;11.694;2023-04-02T05:52:40;8.90;74.50
16503;DHT22;53067;48.114;11.694;2023-04-02T05:57:55;8.90;74.30
16503;DHT22;53067;48.114;11.694;2023-04-02T06:03:00;8.90;74.70
16503;DHT22;53067;48.114;11.694;2023-04-02T06:05:35;8.80;74.80
16503;DHT22;53067;48.114;11.694;2023-04-02T06:08:06;8.80;75.20
16503;DHT22;53067;48.114;11.694;2023-04-02T06:10:51;8.80;75.20
16503;DHT22;53067;48.114;11.694;2023-04-02T06:13:20;8.90;75.20
16503;DHT22;53067;48.114;11.694;2023-04-02T06:15:59;8.80;74.90
16503;DHT22;53067;48.114;11.694;2023-04-02T06:18:33;8.80;75.10
16503;DHT22;53067;48.114;11.694;2023-04-02T06:20:57;8.80;75.10
16503;DHT22;53067;48.114;11.694;2023-04-02T06:23:27;8.80;75.10
16503;DHT22;53067;48.114;11.694;2023-04-02T06:26:50;8.80;74.90
16503;DHT22;53067;48.114;11.694;2023-04-02T06:28:37;8.90;74.90
16503;DHT22;53067;48.114;11.694;2023-04-02T06:31:07;8.90;75.60
16503;DHT22;53067;48.114;11.694;2023-04-02T06:33:33;8.80;75.00
16503;DHT22;53067;48.114;11.694;2023-04-02T06:36:13;8.90;75.10
16503;DHT22;53067;48.114;11.694;2023-04-02T06:38:42;8.90;74.70
16503;DHT22;53067;48.114;11.694;2023-04-02T06:41:14;8.90;75.00
16503;DHT22;53067;48.114;11.694;2023-04-02T06:43:53;8.90;75.10
16503;DHT22;53067;48.114;11.694;2023-04-02T06:48:54;8.90;75.20
16503;DHT22;53067;48.114;11.694;2023-04-02T06:51:22;8.90;75.00
16503;DHT22;53067;48.114;11.694;2023-04-02T06:53:50;8.90;75.10
16503;DHT22;53067;48.114;11.694;2023-04-02T06:56:39;9.00;75.00
16503;DHT22;53067;48.114;11.694;2023-04-02T06:59:04;9.00;74.80
16503;DHT22;53067;48.114;11.694;2023-04-02T07:01:42;9.00;74.80
16503;DHT22;53067;48.114;11.694;2023-04-02T07:04:09;9.00;75.20
16503;DHT22;53067;48.114;11.694;2023-04-02T07:06:37;9.10;74.50
16503;DHT22;53067;48.114;11.694;2023-04-02T07:09:05;9.10;74.40
16503;DHT22;53067;48.114;11.694;2023-04-02T07:11:32;9.10;74.40
16503;DHT22;53067;48.114;11.694;2023-04-02T07:14:00;9.20;74.30
16503;DHT22;53067;48.114;11.694;2023-04-02T07:16:30;9.20;74.40
16503;DHT22;53067;48.114;11.694;2023-04-02T07:18:58;9.30;74.30
16503;DHT22;53067;48.114;11.694;2023-04-02T07:21:26;9.30;74.20
16503;DHT22;53067;48.114;11.694;2023-04-02T07:23:54;9.40;74.00
16503;DHT22;53067;48.114;11.694;2023-04-02T07:26:24;9.40;73.70
16503;DHT22;53067;48.114;11.694;2023-04-02T07:31:58;9.50;73.90
16503;DHT22;53067;48.114;11.694;2023-04-02T07:34:26;9.50;73.40
16503;DHT22;53067;48.114;11.694;2023-04-02T07:36:53;9.50;73.70
16503;DHT22;53067;48.114;11.694;2023-04-02T07:39:21;9.50;73.80
16503;DHT22;53067;48.114;11.694;2023-04-02T07:41:56;9.60;73.70
16503;DHT22;53067;48.114;11.694;2023-04-02T07:44:24;9.70;73.40
16503;DHT22;53067;48.114;11.694;2023-04-02T07:46:52;9.80;72.90
16503;DHT22;53067;48.114;11.694;2023-04-02T07:49:19;9.80;72.90
16503;DHT22;53067;48.114;11.694;2023-04-02T07:51:47;9.80;72.60
16503;DHT22;53067;48.114;11.694;2023-04-02T07:54:15;9.80;72.40
16503;DHT22;53067;48.114;11.694;2023-04-02T07:56:42;9.90;72.90
16503;DHT22;53067;48.114;11.694;2023-04-02T07:59:10;9.90;72.60
16503;DHT22;53067;48.114;11.694;2023-04-02T08:01:37;9.90;72.30
16503;DHT22;53067;48.114;11.694;2023-04-02T08:04:05;9.90;72.40
16503;DHT22;53067;48.114;11.694;2023-04-02T08:06:33;9.90;72.10
16503;DHT22;53067;48.114;11.694;2023-04-02T08:09:01;9.80;72.40
16503;DHT22;53067;48.114;11.694;2023-04-02T08:11:28;9.90;72.90
16503;DHT22;53067;48.114;11.694;2023-04-02T08:13:56;10.00;72.70
16503;DHT22;53067;48.114;11.694;2023-04-02T08:16:23;10.10;72.60
16503;DHT22;53067;48.114;11.694;2023-04-02T08:18:51;10.20;72.30
16503;DHT22;53067;48.114;11.694;2023-04-02T08:21:18;10.30;71.80
16503;DHT22;53067;48.114;11.694;2023-04-02T08:23:46;10.40;71.50
16503;DHT22;53067;48.114;11.694;2023-04-02T08:26:16;10.50;71.10
16503;DHT22;53067;48.114;11.694;2023-04-02T08:28:44;10.50;70.70
16503;DHT22;53067;48.114;11.694;2023-04-02T08:31:11;10.60;70.60
16503;DHT22;53067;48.114;11.694;2023-04-02T08:33:39;10.60;70.50
16503;DHT22;53067;48.114;11.694;2023-04-02T08:36:06;10.80;70.40
16503;DHT22;53067;48.114;11.694;2023-04-02T08:38:34;10.80;70.20
16503;DHT22;53067;48.114;11.694;2023-04-02T08:41:02;10.90;69.80
16503;DHT22;53067;48.114;11.694;2023-04-02T08:46:17;11.10;69.20
16503;DHT22;53067;48.114;11.694;2023-04-02T08:48:46;11.10;68.80
16503;DHT22;53067;48.114;11.694;2023-04-02T08:51:26;11.00;68.90
16503;DHT22;53067;48.114;11.694;2023-04-02T08:53:59;11.00;69.50
16503;DHT22;53067;48.114;11.694;2023-04-02T08:56:28;11.10;69.40
16503;DHT22;53067;48.114;11.694;2023-04-02T08:59:00;11.20;69.20
16503;DHT22;53067;48.114;11.694;2023-04-02T09:01:55;11.30;69.10
16503;DHT22;53067;48.114;11.694;2023-04-02T09:04:22;11.40;68.70
16503;DHT22;53067;48.114;11.694;2023-04-02T09:06:52;11.30;68.00
16503;DHT22;53067;48.114;11.694;2023-04-02T09:09:21;11.30;68.50
16503;DHT22;53067;48.114;11.694;2023-04-02T09:11:55;11.30;68.50
16503;DHT22;53067;48.114;11.694;2023-04-02T09:14:32;11.40;68.60
16503;DHT22;53067;48.114;11.694;2023-04-02T09:17:01;11.50;67.70
16503;DHT22;53067;48.114;11.694;2023-04-02T09:19:37;11.60;67.10
16503;DHT22;53067;48.114;11.694;2023-04-02T09:22:18;11.60;66.80
16503;DHT22;53067;48.114;11.694;2023-04-02T09:24:55;11.60;66.70
16503;DHT22;53067;48.114;11.694;2023-04-02T09:27:23;11.70;66.70
16503;DHT22;53067;48.114;11.694;2023-04-02T09:32:47;11.80;66.50
16503;DHT22;53067;48.114;11.694;2023-04-02T09:35:22;11.90;66.90
16503;DHT22;53067;48.114;11.694;2023-04-02T09:37:46;12.00;65.60
16503;DHT22;53067;48.114;11.694;2023-04-02T09:40:23;12.10;65.50
16503;DHT22;53067;48.114;11.694;2023-04-02T09:42:47;12.20;64.80
16503;DHT22;53067;48.114;11.694;2023-04-02T09:47:46;12.60;64.70
16503;DHT22;53067;48.114;11.694;2023-04-02T09:52:51;12.70;63.00
16503;DHT22;53067;48.114;11.694;2023-04-02T09:55:27;12.70;63.10
16503;DHT22;53067;48.114;11.694;2023-04-02T10:00:36;12.50;62.80
16503;DHT22;53067;48.114;11.694;2023-04-02T10:03:20;12.50;62.70
16503;DHT22;53067;48.114;11.694;2023-04-02T10:05:47;12.50;62.80
16503;DHT22;53067;48.114;11.694;2023-04-02T10:08:24;12.40;63.30
16503;DHT22;53067;48.114;11.694;2023-04-02T10:10:51;12.50;63.40
16503;DHT22;53067;48.114;11.694;2023-04-02T10:13:25;12.70;62.40
16503;DHT22;53067;48.114;11.694;2023-04-02T10:21:17;12.80;62.30
16503;DHT22;53067;48.114;11.694;2023-04-02T10:23:44;12.80;62.50
16503;DHT22;53067;48.114;11.694;2023-04-02T10:29:22;12.90;61.80
16503;DHT22;53067;48.114;11.694;2023-04-02T10:32:05;12.70;62.70
16503;DHT22;53067;48.114;11.694;2023-04-02T10:43:21;12.50;63.10
16503;DHT22;53067;48.114;11.694;2023-04-02T10:45:58;12.60;62.90
16503;DHT22;53067;48.114;11.694;2023-04-02T10:51:32;12.70;62.80
16503;DHT22;53067;48.114;11.694;2023-04-02T10:56:32;12.90;62.60
16503;DHT22;53067;48.114;11.694;2023-04-02T10:59:06;13.10;62.70
16503;DHT22;53067;48.114;11.694;2023-04-02T11:01:34;13.20;61.10
16503;DHT22;53067;48.114;11.694;2023-04-02T11:04:07;13.30;61.30
16503;DHT22;53067;48.114;11.694;2023-04-02T11:06:40;13.50;60.70
16503;DHT22;53067;48.114;11.694;2023-04-02T11:09:18;13.70;59.60
16503;DHT22;53067;48.114;11.694;2023-04-02T11:11:42;13.80;58.10
16503;DHT22;53067;48.114;11.694;2023-04-02T11:14:16;13.70;57.80
16503;DHT22;53067;48.114;11.694;2023-04-02T11:16:43;13.70;58.70
16503;DHT22;53067;48.114;11.694;2023-04-02T11:21:56;13.90;58.20
16503;DHT22;53067;48.114;11.694;2023-04-02T11:32:46;14.10;57.60
16503;DHT22;53067;48.114;11.694;2023-04-02T11:40:48;14.20;58.70
16503;DHT22;53067;48.114;11.694;2023-04-02T11:48:48;14.20;59.90
16503;DHT22;53067;48.114;11.694;2023-04-02T11:53:53;14.20;60.90
16503;DHT22;53067;48.114;11.694;2023-04-02T11:56:41;14.10;62.00
16503;DHT22;53067;48.114;11.694;2023-04-02T12:02:08;14.00;62.10
16503;DHT22;53067;48.114;11.694;2023-04-02T12:04:44;13.90;62.40
16503;DHT22;53067;48.114;11.694;2023-04-02T12:07:21;13.90;62.90
16503;DHT22;53067;48.114;11.694;2023-04-02T12:09:53;14.00;62.90
16503;DHT22;53067;48.114;11.694;2023-04-02T12:12:26;14.10;62.50
16503;DHT22;53067;48.114;11.694;2023-04-02T12:14:55;14.10;62.60
16503;DHT22;53067;48.114;11.694;2023-04-02T12:17:33;14.20;63.30
16503;DHT22;53067;48.114;11.694;2023-04-02T12:22:39;14.10;62.60
16503;DHT22;53067;48.114;11.694;2023-04-02T12:25:24;14.20;62.10
16503;DHT22;53067;48.114;11.694;2023-04-02T12:28:15;14.20;60.00
16503;DHT22;53067;48.114;11.694;2023-04-02T12:30:35;14.20;60.20
16503;DHT22;53067;48.114;11.694;2023-04-02T12:36:00;14.20;63.30
16503;DHT22;53067;48.114;11.694;2023-04-02T12:38:29;14.10;64.60
16503;DHT22;53067;48.114;11.694;2023-04-02T12:41:05;13.90;64.60
16503;DHT22;53067;48.114;11.694;2023-04-02T12:43:34;13.80;67.20
16503;DHT22;53067;48.114;11.694;2023-04-02T12:46:07;13.70;68.40
16503;DHT22;53067;48.114;11.694;2023-04-02T12:48:37;13.50;70.90
16503;DHT22;53067;48.114;11.694;2023-04-02T12:51:05;13.40;71.40
16503;DHT22;53067;48.114;11.694;2023-04-02T12:53:35;13.40;72.40
16503;DHT22;53067;48.114;11.694;2023-04-02T12:56:04;13.40;72.30
16503;DHT22;53067;48.114;11.694;2023-04-02T12:58:41;13.40;72.30
16503;DHT22;53067;48.114;11.694;2023-04-02T13:01:14;13.40;70.80
16503;DHT22;53067;48.114;11.694;2023-04-02T13:04:09;13.30;71.00
16503;DHT22;53067;48.114;11.694;2023-04-02T13:06:46;13.30;70.50
16503;DHT22;53067;48.114;11.694;2023-04-02T13:11:57;13.30;72.20
16503;DHT22;53067;48.114;11.694;2023-04-02T13:14:25;13.20;73.20
16503;DHT22;53067;48.114;11.694;2023-04-02T13:16:54;13.00;74.90
16503;DHT22;53067;48.114;11.694;2023-04-02T13:19:30;12.80;75.70
16503;DHT22;53067;48.114;11.694;2023-04-02T13:21:59;12.70;76.00
16503;DHT22;53067;48.114;11.694;2023-04-02T13:24:30;12.70;76.50
16503;DHT22;53067;48.114;11.694;2023-04-02T13:27:00;12.50;76.00
16503;DHT22;53067;48.114;11.694;2023-04-02T13:29:30;12.40;76.80
16503;DHT22;53067;48.114;11.694;2023-04-02T13:32:00;12.30;76.90
16503;DHT22;53067;48.114;11.694;2023-04-02T13:34:28;12.30;77.50
16503;DHT22;53067;48.114;11.694;2023-04-02T13:36:56;12.30;79.10
16503;DHT22;53067;48.114;11.694;2023-04-02T13:39:24;12.20;78.50
16503;DHT22;53067;48.114;11.694;2023-04-02T13:42:00;12.10;78.90
16503;DHT22;53067;48.114;11.694;2023-04-02T13:44:31;12.10;79.30
16503;DHT22;53067;48.114;11.694;2023-04-02T13:46:59;12.00;79.40
16503;DHT22;53067;48.114;11.694;2023-04-02T13:49:27;12.00;79.60
16503;DHT22;53067;48.114;11.694;2023-04-02T13:52:00;12.00;80.10
16503;DHT22;53067;48.114;11.694;2023-04-02T13:54:37;12.10;79.80
16503;DHT22;53067;48.114;11.694;2023-04-02T13:57:02;12.10;80.10
16503;DHT22;53067;48.114;11.694;2023-04-02T13:59:30;12.10;80.20
16503;DHT22;53067;48.114;11.694;2023-04-02T14:02:04;12.10;79.80
16503;DHT22;53067;48.114;11.694;2023-04-02T14:04:30;12.20;79.40
16503;DHT22;53067;48.114;11.694;2023-04-02T14:09:59;12.20;79.50
16503;DHT22;53067;48.114;11.694;2023-04-02T14:13:37;12.30;80.00
16503;DHT22;53067;48.114;11.694;2023-04-02T14:15:38;12.20;79.60
16503;DHT22;53067;48.114;11.694;2023-04-02T14:26:51;12.20;80.90
16503;DHT22;53067;48.114;11.694;2023-04-02T14:29:34;12.20;80.70
16503;DHT22;53067;48.114;11.694;2023-04-02T14:35:03;12.10;80.80
16503;DHT22;53067;48.114;11.694;2023-04-02T14:40:31;12.10;81.70
16503;DHT22;53067;48.114;11.694;2023-04-02T14:43:13;12.00;80.00
16503;DHT22;53067;48.114;11.694;2023-04-02T14:45:41;11.80;78.10
16503;DHT22;53067;48.114;11.694;2023-04-02T14:48:18;11.50;79.00
16503;DHT22;53067;48.114;11.694;2023-04-02T14:51:00;11.40;79.50
16503;DHT22;53067;48.114;11.694;2023-04-02T14:53:39;11.20;80.10
16503;DHT22;53067;48.114;11.694;2023-04-02T14:56:04;11.20;80.40
16503;DHT22;53067;48.114;11.694;2023-04-02T14:58:37;11.20;81.20
16503;DHT22;53067;48.114;11.694;2023-04-02T15:01:21;11.20;81.20
16503;DHT22;53067;48.114;11.694;2023-04-02T15:04:00;11.20;82.70
16503;DHT22;53067;48.114;11.694;2023-04-02T15:06:34;11.10;82.10
16503;DHT22;53067;48.114;11.694;2023-04-02T15:09:09;11.10;82.30
16503;DHT22;53067;48.114;11.694;2023-04-02T15:11:51;11.10;82.20
16503;DHT22;53067;48.114;11.694;2023-04-02T15:14:20;11.20;82.40
16503;DHT22;53067;48.114;11.694;2023-04-02T15:16:48;11.20;82.40
16503;DHT22;53067;48.114;11.694;2023-04-02T15:22:35;11.20;82.70
16503;DHT22;53067;48.114;11.694;2023-04-02T15:25:09;11.20;82.60
16503;DHT22;53067;48.114;11.694;2023-04-02T15:27:59;11.10;82.70
16503;DHT22;53067;48.114;11.694;2023-04-02T15:30:34;11.20;82.70
16503;DHT22;53067;48.114;11.694;2023-04-02T15:38:31;11.10;82.80
16503;DHT22;53067;48.114;11.694;2023-04-02T15:43:56;11.10;83.10
16503;DHT22;53067;48.114;11.694;2023-04-02T15:46:36;11.10;83.20
16503;DHT22;53067;48.114;11.694;2023-04-02T15:52:05;11.00;83.50
16503;DHT22;53067;48.114;11.694;2023-04-02T15:54:45;11.00;83.30
16503;DHT22;53067;48.114;11.694;2023-04-02T16:00:30;11.00;83.10
16503;DHT22;53067;48.114;11.694;2023-04-02T16:03:12;11.00;83.40
16503;DHT22;53067;48.114;11.694;2023-04-02T16:05:54;10.90;83.50
16503;DHT22;53067;48.114;11.694;2023-04-02T16:10:53;10.90;83.60
16503;DHT22;53067;48.114;11.694;2023-04-02T16:13:30;10.90;83.50
16503;DHT22;53067;48.114;11.694;2023-04-02T16:18:51;10.80;83.00
16503;DHT22;53067;48.114;11.694;2023-04-02T16:21:23;10.70;82.90
16503;DHT22;53067;48.114;11.694;2023-04-02T16:23:51;10.50;83.10
16503;DHT22;53067;48.114;11.694;2023-04-02T16:46:22;10.10;84.00
16503;DHT22;53067;48.114;11.694;2023-04-02T16:48:55;10.00;85.00
16503;DHT22;53067;48.114;11.694;2023-04-02T16:51:36;10.10;84.40
16503;DHT22;53067;48.114;11.694;2023-04-02T16:57:17;10.00;84.20
16503;DHT22;53067;48.114;11.694;2023-04-02T17:05:32;10.00;83.10
16503;DHT22;53067;48.114;11.694;2023-04-02T17:08:24;9.90;83.20
16503;DHT22;53067;48.114;11.694;2023-04-02T17:11:01;9.90;83.10
16503;DHT22;53067;48.114;11.694;2023-04-02T17:13:36;9.90;83.00
16503;DHT22;53067;48.114;11.694;2023-04-02T17:16:39;9.90;82.80
16503;DHT22;53067;48.114;11.694;2023-04-02T17:19:07;9.90;83.00
16503;DHT22;53067;48.114;11.694;2023-04-02T17:21:34;9.90;83.50
16503;DHT22;53067;48.114;11.694;2023-04-02T17:24:22;9.80;83.40
16503;DHT22;53067;48.114;11.694;2023-04-02T17:26:57;9.70;83.10
16503;DHT22;53067;48.114;11.694;2023-04-02T17:29:37;9.60;83.70
16503;DHT22;53067;48.114;11.694;2023-04-02T17:32:11;9.60;83.90
16503;DHT22;53067;48.114;11.694;2023-04-02T17:34:35;9.50;83.30
16503;DHT22;53067;48.114;11.694;2023-04-02T17:37:30;9.50;83.10
16503;DHT22;53067;48.114;11.694;2023-04-02T17:42:56;9.30;82.70
16503;DHT22;53067;48.114;11.694;2023-04-02T17:45:40;9.10;82.10
16503;DHT22;53067;48.114;11.694;2023-04-02T17:48:33;9.10;82.40
16503;DHT22;53067;48.114;11.694;2023-04-02T17:51:15;9.00;82.00
16503;DHT22;53067;48.114;11.694;2023-04-02T17:54:02;9.00;82.40
16503;DHT22;53067;48.114;11.694;2023-04-02T18:04:31;8.70;79.90
16503;DHT22;53067;48.114;11.694;2023-04-02T18:07:11;8.60;80.30
16503;DHT22;53067;48.114;11.694;2023-04-02T18:10:14;8.60;80.50
16503;DHT22;53067;48.114;11.694;2023-04-02T18:19:02;8.40;79.80
16503;DHT22;53067;48.114;11.694;2023-04-02T18:21:37;8.40;80.00
16503;DHT22;53067;48.114;11.694;2023-04-02T18:24:14;8.30;79.50
16503;DHT22;53067;48.114;11.694;2023-04-02T18:30:02;8.30;80.10
16503;DHT22;53067;48.114;11.694;2023-04-02T18:32:46;8.10;80.80
16503;DHT22;53067;48.114;11.694;2023-04-02T18:35:33;8.10;81.60
16503;DHT22;53067;48.114;11.694;2023-04-02T18:38:22;8.10;82.20
16503;DHT22;53067;48.114;11.694;2023-04-02T18:46:58;8.00;80.30
16503;DHT22;53067;48.114;11.694;2023-04-02T18:49:27;7.90;79.90
16503;DHT22;53067;48.114;11.694;2023-04-02T18:52:16;7.90;79.50
16503;DHT22;53067;48.114;11.694;2023-04-02T18:54:50;7.90;79.60
16503;DHT22;53067;48.114;11.694;2023-04-02T18:57:23;8.00;79.20
16503;DHT22;53067;48.114;11.694;2023-04-02T19:00:03;7.90;78.90
16503;DHT22;53067;48.114;11.694;2023-04-02T19:02:41;8.00;79.50
16503;DHT22;53067;48.114;11.694;2023-04-02T19:08:03;7.70;79.10
16503;DHT22;53067;48.114;11.694;2023-04-02T19:10:37;7.70;78.60
16503;DHT22;53067;48.114;11.694;2023-04-02T19:13:17;7.70;78.50
16503;DHT22;53067;48.114;11.694;2023-04-02T19:19:01;7.70;78.50
16503;DHT22;53067;48.114;11.694;2023-04-02T19:30:21;7.60;78.70
16503;DHT22;53067;48.114;11.694;2023-04-02T19:41:14;7.50;77.60
16503;DHT22;53067;48.114;11.694;2023-04-02T19:43:31;7.50;77.50
16503;DHT22;53067;48.114;11.694;2023-04-02T19:46:00;7.50;77.90
16503;DHT22;53067;48.114;11.694;2023-04-02T19:48:32;7.50;76.90
16503;DHT22;53067;48.114;11.694;2023-04-02T19:50:58;7.50;76.80
16503;DHT22;53067;48.114;11.694;2023-04-02T19:53:26;7.40;75.90
16503;DHT22;53067;48.114;11.694;2023-04-02T19:55:54;7.40;76.60
16503;DHT22;53067;48.114;11.694;2023-04-02T19:58:28;7.30;75.50
16503;DHT22;53067;48.114;11.694;2023-04-02T20:00:56;7.40;75.50
16503;DHT22;53067;48.114;11.694;2023-04-02T20:03:24;7.30;75.50
16503;DHT22;53067;48.114;11.694;2023-04-02T20:05:52;7.30;75.70
16503;DHT22;53067;48.114;11.694;2023-04-02T20:08:20;7.30;76.00
16503;DHT22;53067;48.114;11.694;2023-04-02T20:10:48;7.20;74.00
16503;DHT22;53067;48.114;11.694;2023-04-02T20:13:15;7.10;73.30
16503;DHT22;53067;48.114;11.694;2023-04-02T20:15:43;7.00;73.90